MSC Caracas — DGZN — position and weather

sailwx.info

Track history (hours):
 
Tides and Currents Weather Stations Pressure Air Temp Water Temp Dewpoint Dewpoint Depression Visibility Wind Speed Wind Dir Waves Ship Positions

MSC Caracas

Last reported at 2015-Feb-19 05:32 UTC. Time now 2015-Mar-03 03:15 UTC.
Position N 06°02' E 003°25'.
Warning: this ship's position is 11 days out of date.

Length 207.4 m; beam 29.8 m; draft 11.4 m.

Type: Cargo ship. MMSI: 211283670.

Date/timePositionNaut miles runAvg speedWind from/ knotsBaromVisibWave heightAir tempDewpointWater temp
2015-Feb-19 05:32N 06°02' E 003°25'1010.4
2015-Feb-19 04:33N 06°12' E 003°25'1111.1
2015-Feb-19 03:33N 06°23' E 003°24'3 2.8
2015-Feb-19 02:32N 06°26' E 003°23'0 0.1
2015-Feb-19 01:33N 06°26' E 003°23'0 0.0
2015-Feb-19 00:31N 06°26' E 003°23'0 0.0
2015-Feb-18 23:22N 06°26' E 003°23'0 0.0
2015-Feb-18 22:20N 06°26' E 003°23'0 0.0
2015-Feb-18 21:17N 06°26' E 003°23'0 0.0
2015-Feb-18 20:29N 06°26' E 003°23'0 0.0
2015-Feb-18 19:29N 06°26' E 003°23'0 0.0
2015-Feb-18 18:23N 06°26' E 003°23'0 0.0
2015-Feb-18 17:32N 06°26' E 003°23'0 0.0
2015-Feb-18 16:32N 06°26' E 003°23'0 0.0
2015-Feb-18 15:29N 06°26' E 003°23'0 0.0
2015-Feb-18 14:32N 06°26' E 003°23'0 0.0
2015-Feb-18 13:17N 06°26' E 003°23'0 0.0
2015-Feb-18 12:29N 06°26' E 003°23'0 0.0
2015-Feb-18 11:29N 06°26' E 003°23'0 0.0
2015-Feb-18 10:26N 06°26' E 003°23'0 0.0
2015-Feb-18 09:29N 06°26' E 003°23'0 0.0
2015-Feb-18 08:29N 06°26' E 003°23'0 0.0
2015-Feb-18 07:32N 06°26' E 003°23'0 0.0
2015-Feb-18 06:23N 06°26' E 003°23'0 0.0
2015-Feb-18 05:32N 06°26' E 003°23'0 0.0
2015-Feb-18 04:26N 06°26' E 003°23'0 0.0
2015-Feb-18 03:32N 06°26' E 003°23'0 0.0
2015-Feb-18 02:32N 06°26' E 003°23'0 0.0
2015-Feb-18 01:29N 06°26' E 003°23'0 0.0
2015-Feb-18 00:29N 06°26' E 003°23'0 0.0
2015-Feb-17 23:32N 06°26' E 003°23'0 0.0
2015-Feb-17 22:29N 06°26' E 003°23'0 0.0
2015-Feb-17 21:23N 06°26' E 003°23'0 0.0
2015-Feb-17 20:32N 06°26' E 003°23'0 0.0
2015-Feb-17 19:26N 06°26' E 003°23'0 0.0
2015-Feb-17 17:32N 06°26' E 003°23'0 0.0
2015-Feb-17 16:32N 06°26' E 003°23'0 0.0
2015-Feb-17 15:32N 06°26' E 003°23'0 0.0
2015-Feb-17 14:29N 06°26' E 003°23'0 0.0
2015-Feb-17 13:17N 06°26' E 003°23'0 0.0
2015-Feb-17 12:29N 06°26' E 003°23'0 0.0
2015-Feb-17 11:26N 06°26' E 003°23'0 0.0
2015-Feb-17 10:29N 06°26' E 003°23'0 0.0
2015-Feb-17 09:23N 06°26' E 003°23'0 0.0
2015-Feb-17 08:32N 06°26' E 003°23'0 0.0
2015-Feb-17 07:23N 06°26' E 003°23'0 0.0
2015-Feb-17 06:29N 06°26' E 003°23'0 0.0
2015-Feb-17 05:29N 06°26' E 003°23'0 0.0
2015-Feb-17 04:11N 06°26' E 003°23'0 0.0
2015-Feb-17 03:23N 06°26' E 003°23'0 0.0
2015-Feb-17 02:29N 06°26' E 003°23'0 0.0
2015-Feb-17 01:17N 06°26' E 003°23'0 0.0
2015-Feb-17 00:26N 06°26' E 003°23'0 0.0
2015-Feb-16 23:29N 06°26' E 003°23'0 0.0
2015-Feb-16 22:17N 06°26' E 003°23'0 0.0
2015-Feb-16 21:26N 06°26' E 003°23'1 1.3
2015-Feb-16 20:31N 06°26' E 003°24'3 3.4
2015-Feb-16 19:33N 06°22' E 003°25'4 4.5
2015-Feb-16 18:33N 06°19' E 003°28'1 0.9
2015-Feb-16 17:32N 06°19' E 003°27'1 1.1
2015-Feb-16 16:33N 06°18' E 003°26'1 1.1
2015-Feb-16 15:33N 06°18' E 003°25'1 0.9
2015-Feb-16 14:32N 06°18' E 003°26'1 1.1
2015-Feb-16 13:33N 06°17' E 003°26'3 2.7
2015-Feb-16 12:34N 06°15' E 003°24'1111.2
2015-Feb-16 11:33N 06°07' E 003°16'19213.2
2015-Feb-15 21:00N 04°54' E 000°18'27511.4 40.0
2015-Feb-14 21:00N 04°00' W 004°12'62612.2 200 / 71012.010.8 28.023.9
2015-Feb-12 17:33N 07°37' W 014°03'1212.0
2015-Feb-12 16:33N 07°44' W 014°13'8712.5
2015-Feb-12 09:33N 08°42' W 015°19'1212.2
2015-Feb-12 08:33N 08°51' W 015°27'1212.1
2015-Feb-12 07:33N 08°60' W 015°35'1712.3
2015-Feb-12 06:09N 09°12' W 015°47'712.3
2015-Feb-12 05:34N 09°18' W 015°52'1312.4
2015-Feb-12 04:33N 09°27' W 016°01'2812.2
2015-Feb-12 02:16N 09°47' W 016°20'6912.0
2015-Feb-11 20:33N 10°38' W 017°07'2412.1
2015-Feb-11 18:33N 10°56' W 017°23'1812.2
2015-Feb-11 17:05N 11°11' W 017°33'7811.4
2015-Feb-11 10:13N 12°28' W 017°45'1011.5
2015-Feb-11 09:19N 12°39' W 017°45'911.7
2015-Feb-11 08:31N 12°48' W 017°45'9611.2
2015-Feb-11 00:00N 14°24' W 017°42'24612.3 360 / 8 10.8 19.517.2
2015-Feb-10 04:00N 18°30' W 017°42'   360 / 141015.010.8 2.017.013.719.0
Track history (hours):
 
Tides and Currents Weather Stations Pressure Air Temp Water Temp Dewpoint Dewpoint Depression Visibility Wind Speed Wind Dir Waves Ship Positions

MSC Caracas

Last reported at 2015-Feb-19 05:32 UTC. Time now 2015-Mar-03 03:15 UTC.
Position N 06°02' E 003°25'.
Warning: this ship's position is 11 days out of date.

Length 207.4 m; beam 29.8 m; draft 11.4 m.

Type: Cargo ship. MMSI: 211283670.

Date/timePositionNaut miles runAvg speedWind from/ knotsBaromVisibWave heightAir tempDewpointWater temp
2015-Feb-19 05:32N 06°02' E 003°25'1010.4
2015-Feb-19 04:33N 06°12' E 003°25'1111.1
2015-Feb-19 03:33N 06°23' E 003°24'3 2.8
2015-Feb-19 02:32N 06°26' E 003°23'0 0.1
2015-Feb-19 01:33N 06°26' E 003°23'0 0.0
2015-Feb-19 00:31N 06°26' E 003°23'0 0.0
2015-Feb-18 23:22N 06°26' E 003°23'0 0.0
2015-Feb-18 22:20N 06°26' E 003°23'0 0.0
2015-Feb-18 21:17N 06°26' E 003°23'0 0.0
2015-Feb-18 20:29N 06°26' E 003°23'0 0.0
2015-Feb-18 19:29N 06°26' E 003°23'0 0.0
2015-Feb-18 18:23N 06°26' E 003°23'0 0.0
2015-Feb-18 17:32N 06°26' E 003°23'0 0.0
2015-Feb-18 16:32N 06°26' E 003°23'0 0.0
2015-Feb-18 15:29N 06°26' E 003°23'0 0.0
2015-Feb-18 14:32N 06°26' E 003°23'0 0.0
2015-Feb-18 13:17N 06°26' E 003°23'0 0.0
2015-Feb-18 12:29N 06°26' E 003°23'0 0.0
2015-Feb-18 11:29N 06°26' E 003°23'0 0.0
2015-Feb-18 10:26N 06°26' E 003°23'0 0.0
2015-Feb-18 09:29N 06°26' E 003°23'0 0.0
2015-Feb-18 08:29N 06°26' E 003°23'0 0.0
2015-Feb-18 07:32N 06°26' E 003°23'0 0.0
2015-Feb-18 06:23N 06°26' E 003°23'0 0.0
2015-Feb-18 05:32N 06°26' E 003°23'0 0.0
2015-Feb-18 04:26N 06°26' E 003°23'0 0.0
2015-Feb-18 03:32N 06°26' E 003°23'0 0.0
2015-Feb-18 02:32N 06°26' E 003°23'0 0.0
2015-Feb-18 01:29N 06°26' E 003°23'0 0.0
2015-Feb-18 00:29N 06°26' E 003°23'0 0.0
2015-Feb-17 23:32N 06°26' E 003°23'0 0.0
2015-Feb-17 22:29N 06°26' E 003°23'0 0.0
2015-Feb-17 21:23N 06°26' E 003°23'0 0.0
2015-Feb-17 20:32N 06°26' E 003°23'0 0.0
2015-Feb-17 19:26N 06°26' E 003°23'0 0.0
2015-Feb-17 17:32N 06°26' E 003°23'0 0.0
2015-Feb-17 16:32N 06°26' E 003°23'0 0.0
2015-Feb-17 15:32N 06°26' E 003°23'0 0.0
2015-Feb-17 14:29N 06°26' E 003°23'0 0.0
2015-Feb-17 13:17N 06°26' E 003°23'0 0.0
2015-Feb-17 12:29N 06°26' E 003°23'0 0.0
2015-Feb-17 11:26N 06°26' E 003°23'0 0.0
2015-Feb-17 10:29N 06°26' E 003°23'0 0.0
2015-Feb-17 09:23N 06°26' E 003°23'0 0.0
2015-Feb-17 08:32N 06°26' E 003°23'0 0.0
2015-Feb-17 07:23N 06°26' E 003°23'0 0.0
2015-Feb-17 06:29N 06°26' E 003°23'0 0.0
2015-Feb-17 05:29N 06°26' E 003°23'0 0.0
2015-Feb-17 04:11N 06°26' E 003°23'0 0.0
2015-Feb-17 03:23N 06°26' E 003°23'0 0.0
2015-Feb-17 02:29N 06°26' E 003°23'0 0.0
2015-Feb-17 01:17N 06°26' E 003°23'0 0.0
2015-Feb-17 00:26N 06°26' E 003°23'0 0.0
2015-Feb-16 23:29N 06°26' E 003°23'0 0.0
2015-Feb-16 22:17N 06°26' E 003°23'0 0.0
2015-Feb-16 21:26N 06°26' E 003°23'1 1.3
2015-Feb-16 20:31N 06°26' E 003°24'3 3.4
2015-Feb-16 19:33N 06°22' E 003°25'4 4.5
2015-Feb-16 18:33N 06°19' E 003°28'1 0.9
2015-Feb-16 17:32N 06°19' E 003°27'1 1.1
2015-Feb-16 16:33N 06°18' E 003°26'1 1.1
2015-Feb-16 15:33N 06°18' E 003°25'1 0.9
2015-Feb-16 14:32N 06°18' E 003°26'1 1.1
2015-Feb-16 13:33N 06°17' E 003°26'3 2.7
2015-Feb-16 12:34N 06°15' E 003°24'1111.2
2015-Feb-16 11:33N 06°07' E 003°16'19213.2
2015-Feb-15 21:00N 04°54' E 000°18'27511.4 40.0
2015-Feb-14 21:00N 04°00' W 004°12'62612.2 200 / 71012.010.8 28.023.9
2015-Feb-12 17:33N 07°37' W 014°03'1212.0
2015-Feb-12 16:33N 07°44' W 014°13'8712.5
2015-Feb-12 09:33N 08°42' W 015°19'1212.2
2015-Feb-12 08:33N 08°51' W 015°27'1212.1
2015-Feb-12 07:33N 08°60' W 015°35'1712.3
2015-Feb-12 06:09N 09°12' W 015°47'712.3
2015-Feb-12 05:34N 09°18' W 015°52'1312.4
2015-Feb-12 04:33N 09°27' W 016°01'2812.2
2015-Feb-12 02:16N 09°47' W 016°20'6912.0
2015-Feb-11 20:33N 10°38' W 017°07'2412.1
2015-Feb-11 18:33N 10°56' W 017°23'1812.2
2015-Feb-11 17:05N 11°11' W 017°33'7811.4
2015-Feb-11 10:13N 12°28' W 017°45'1011.5
2015-Feb-11 09:19N 12°39' W 017°45'911.7
2015-Feb-11 08:31N 12°48' W 017°45'9611.2
2015-Feb-11 00:00N 14°24' W 017°42'24612.3 360 / 8 10.8 19.517.2
2015-Feb-10 04:00N 18°30' W 017°42'   360 / 141015.010.8 2.017.013.719.0

Dump ship's entire track history